»·PEaware :: TWA412 KLAX-KPHX

TWA412 :: KLAX-KPHX

FLIGHT INFORMATION

Flight Status: Arrived
Operator:
Trans World Airlines
More flights by this operator :: More flights under this callsign
Pilot: Ben F. (2808)
Aircraft: BOEING 727-200
(B722)
More flights by this aircraft type
Origin: KLAX Los Angeles Intl
United States
Destination: KPHX Phoenix Sky Harbor Intl
United States
More flights between these airports :: More routes between these airports
Route: +LAXX1 TRM BLH ARLIN4
File this flight plan on PilotEdge
Remarks: SUP BOSS?
Altitude:
(Current/Filed)
29,000ft
Speed:
(Current/Filed)
496kts
Departed: 30-Aug-18 08:56 AM
Arrived: 30-Aug-18 09:51 AM
Distance/Time
Traveled:
321nm/0:55
Distance/Time
To Go:
Arrived

Flight Plot

Page will automatically refresh every two minutes.

Flight plan parsing failed; only flown route is shown


Map Options




Map Legend


Flown Route
Filed Route
Departure Airport
Arrival Airport
Navaid (VOR, NDB)
Fix

Horizontal Profiles

Position Reports

Time Latitude Longitude Heading Altitude Ground
Speed
30-Aug-18 08:38 33.939752 -118.407347 69 139ft 0kts
30-Aug-18 08:39 33.939752 -118.407347 69 139ft 0kts
30-Aug-18 08:40 33.939752 -118.407347 69 139ft 0kts
30-Aug-18 08:41 33.939752 -118.407347 69 139ft 0kts
30-Aug-18 08:42 33.939752 -118.407347 69 139ft 0kts
30-Aug-18 08:43 33.939752 -118.407347 69 139ft 0kts
30-Aug-18 08:44 33.939752 -118.407348 69 139ft 0kts
30-Aug-18 08:45 33.939644 -118.407820 101 139ft 2kts
30-Aug-18 08:46 33.939996 -118.408185 173 139ft 1kts
30-Aug-18 08:47 33.940001 -118.408186 173 139ft 0kts
30-Aug-18 08:48 33.940001 -118.408186 173 139ft 0kts
30-Aug-18 08:49 33.939672 -118.408135 172 139ft 3kts
30-Aug-18 08:50 33.938172 -118.405908 84 139ft 17kts
30-Aug-18 08:51 33.938836 -118.399317 82 139ft 27kts
30-Aug-18 08:52 33.939823 -118.389847 82 139ft 29kts
30-Aug-18 08:53 33.940739 -118.380943 82 139ft 11kts
30-Aug-18 08:54 33.940760 -118.380302 121 139ft 0kts
30-Aug-18 08:55 33.940760 -118.380302 121 139ft 0kts
30-Aug-18 08:56 33.939780 -118.380898 261 139ft 0kts
30-Aug-18 08:57 33.936587 -118.413563 264 695ft 177kts
30-Aug-18 08:58 33.921408 -118.474541 232 2608ft 230kts
30-Aug-18 08:59 33.879479 -118.543754 233 5731ft 265kts
30-Aug-18 09:00 33.831887 -118.612710 208 8943ft 279kts
30-Aug-18 09:01 33.768725 -118.574675 105 11655ft 307kts
30-Aug-18 09:02 33.770322 -118.467515 88 13410ft 350kts
30-Aug-18 09:03 33.774355 -118.348052 88 15701ft 368kts
30-Aug-18 09:04 33.778473 -118.224156 88 17804ft 382kts
30-Aug-18 09:05 33.782646 -118.095919 88 19668ft 395kts
30-Aug-18 09:06 33.777036 -117.966876 95 21242ft 406kts
30-Aug-18 09:07 33.766752 -117.830215 95 22738ft 417kts
30-Aug-18 09:08 33.756062 -117.690174 95 24056ft 428kts
30-Aug-18 09:09 33.744911 -117.546471 95 25238ft 438kts
30-Aug-18 09:10 33.733327 -117.399447 95 26302ft 447kts
30-Aug-18 09:11 33.721488 -117.251448 96 27252ft 455kts
30-Aug-18 09:12 33.709144 -117.099525 96 28124ft 462kts
30-Aug-18 09:13 33.696508 -116.946365 96 28973ft 467kts
30-Aug-18 09:14 33.683402 -116.788850 96 29058ft 489kts
30-Aug-18 09:15 33.669465 -116.623090 96 29001ft 509kts
30-Aug-18 09:16 33.654931 -116.453026 96 28961ft 516kts
30-Aug-18 09:17 33.640199 -116.283399 96 28937ft 518kts
30-Aug-18 09:18 33.628927 -116.120657 91 28941ft 517kts
30-Aug-18 09:19 33.625700 -115.949123 91 28939ft 516kts
30-Aug-18 09:20 33.622398 -115.777165 91 28951ft 516kts
30-Aug-18 09:21 33.618584 -115.606149 91 28961ft 517kts
30-Aug-18 09:22 33.614281 -115.434849 91 28958ft 517kts
30-Aug-18 09:23 33.609924 -115.269553 92 28958ft 517kts
30-Aug-18 09:24 33.605600 -115.097226 92 28966ft 517kts
30-Aug-18 09:25 33.601143 -114.925909 92 28965ft 514kts
30-Aug-18 09:26 33.593943 -114.755591 102 28958ft 508kts
30-Aug-18 09:27 33.564187 -114.594984 103 28410ft 488kts
30-Aug-18 09:28 33.533783 -114.438636 104 27332ft 480kts
30-Aug-18 09:29 33.504776 -114.290822 104 25636ft 464kts
30-Aug-18 09:30 33.478310 -114.156867 105 23122ft 445kts
30-Aug-18 09:31 33.450112 -114.015752 105 22970ft 445kts
30-Aug-18 09:32 33.420387 -113.868467 105 22970ft 464kts
30-Aug-18 09:33 33.389893 -113.718236 105 23071ft 451kts
30-Aug-18 09:34 33.361111 -113.577425 105 21383ft 430kts
30-Aug-18 09:35 33.333034 -113.440919 105 19420ft 417kts
30-Aug-18 09:36 33.306423 -113.312275 106 17570ft 404kts
30-Aug-18 09:37 33.279927 -113.184905 106 15709ft 392kts
30-Aug-18 09:38 33.276397 -113.058552 89 14077ft 376kts
30-Aug-18 09:39 33.281345 -112.935903 88 12424ft 364kts
30-Aug-18 09:40 33.286224 -112.819952 88 11978ft 339kts
30-Aug-18 09:41 33.290781 -112.710173 88 11977ft 322kts
30-Aug-18 09:42 33.316767 -112.614946 60 11177ft 306kts
30-Aug-18 09:43 33.358943 -112.527249 59 9786ft 305kts
30-Aug-18 09:44 33.398548 -112.443227 59 8239ft 269kts
30-Aug-18 09:45 33.432098 -112.370201 59 6732ft 248kts
30-Aug-18 09:46 33.440736 -112.296980 88 5657ft 246kts
30-Aug-18 09:47 33.440842 -112.217177 89 4320ft 230kts
30-Aug-18 09:48 33.440882 -112.148297 89 3221ft 175kts
30-Aug-18 09:49 33.440894 -112.094577 90 2276ft 156kts
30-Aug-18 09:50 33.440756 -112.055172 89 1627ft 153kts
30-Aug-18 09:52 33.440033 -112.004333 120 1146ft 1kts
30-Aug-18 09:53 33.439043 -112.002472 89 1146ft 11kts
30-Aug-18 09:54 33.437874 -112.000009 99 1146ft 5kts

Navigation Log

Ident Type
Flight plan parsing failed, navigation log unavailable